createdAt,value
2019-02-27T00:01:26.094Z,51.35
2019-02-27T00:03:59.854Z,56.98
2019-02-27T00:06:31.392Z,49.38
2019-02-27T00:09:02.893Z,53.65
2019-02-27T00:11:35.750Z,53.70
2019-02-27T00:14:08.149Z,54.00
2019-02-27T00:16:41.729Z,50.15
2019-02-27T00:19:13.307Z,51.85
2019-02-27T00:21:44.760Z,48.85
2019-02-27T00:24:16.303Z,55.98
2019-02-27T00:26:47.728Z,52.65
2019-02-27T00:29:20.284Z,52.10
2019-02-27T00:31:52.332Z,51.58
2019-02-27T00:34:23.957Z,52.62
2019-02-27T00:36:56.261Z,47.78
2019-02-27T00:39:32.160Z,52.75
2019-02-27T00:42:03.428Z,50.98
2019-02-27T00:44:37.828Z,51.68
2019-02-27T00:47:09.426Z,57.30
2019-02-27T00:49:40.733Z,53.42
2019-02-27T00:52:11.891Z,48.28
2019-02-27T00:54:44.341Z,44.40
2019-02-27T00:57:20.542Z,47.27
2019-02-27T00:59:48.629Z,55.52
2019-02-27T01:02:20.870Z,29.25
2019-02-27T01:04:52.073Z,48.98
2019-02-27T01:07:23.966Z,51.48
2019-02-27T01:09:55.870Z,48.00
2019-02-27T01:12:27.308Z,47.38
2019-02-27T01:14:59.340Z,51.55
2019-02-27T01:17:30.693Z,51.77
2019-02-27T01:20:01.850Z,52.20
2019-02-27T01:22:34.456Z,51.40
2019-02-27T01:25:05.826Z,53.02
2019-02-27T01:27:38.095Z,49.58
2019-02-27T01:30:14.155Z,49.53
2019-02-27T01:32:45.396Z,39.78
2019-02-27T01:35:18.718Z,32.17
2019-02-27T01:37:50.989Z,44.55
2019-02-27T01:40:22.276Z,52.88
2019-02-27T01:42:53.660Z,30.02
2019-02-27T01:45:25.446Z,34.08
2019-02-27T01:47:56.708Z,41.50
2019-02-27T01:50:30.754Z,38.17
2019-02-27T01:53:02.015Z,49.18
2019-02-27T01:55:35.417Z,38.20
2019-02-27T01:58:09.273Z,43.78
2019-02-27T02:00:39.794Z,51.83
2019-02-27T02:03:13.602Z,48.87
2019-02-27T02:05:44.516Z,38.00
2019-02-27T02:08:15.831Z,46.60
2019-02-27T02:10:47.079Z,47.05
2019-02-27T02:13:25.463Z,47.53
2019-02-27T02:16:35.305Z,49.38
2019-02-27T02:19:42.320Z,49.20
2019-02-27T02:23:04.583Z,49.45
2019-02-27T02:25:47.548Z,48.60
2019-02-27T02:28:59.211Z,48.20
2019-02-27T02:32:04.041Z,44.42
2019-02-27T02:34:58.055Z,47.40
2019-02-27T02:38:15.072Z,46.07
2019-02-27T02:41:27.220Z,47.25
2019-02-27T02:44:40.027Z,47.43
2019-02-27T02:47:48.474Z,48.60
2019-02-27T02:50:55.851Z,47.53
2019-02-27T02:54:16.723Z,45.33
2019-02-27T02:57:05.848Z,47.40
2019-02-27T03:00:20.973Z,46.88
2019-02-27T03:03:08.279Z,46.43
2019-02-27T03:06:05.055Z,46.37
2019-02-27T03:08:55.433Z,44.60
2019-02-27T03:11:54.818Z,42.83
2019-02-27T03:14:53.344Z,44.63
2019-02-27T03:18:02.611Z,45.07
2019-02-27T03:21:19.459Z,46.45
2019-02-27T03:24:46.960Z,44.15
2019-02-27T03:27:33.552Z,43.28
2019-02-27T03:30:36.861Z,47.37
2019-02-27T03:33:35.478Z,45.98
2019-02-27T03:36:57.366Z,15.88
2019-02-27T03:40:21.461Z,45.07
2019-02-27T03:43:46.102Z,46.87
2019-02-27T03:46:40.735Z,47.05
2019-02-27T03:49:41.013Z,42.73
2019-02-27T03:53:02.212Z,40.08
2019-02-27T03:56:18.646Z,24.65
2019-02-27T03:59:28.378Z,37.45
2019-02-27T04:02:22.551Z,43.75
2019-02-27T04:05:20.184Z,41.80
2019-02-27T04:08:17.850Z,45.73
2019-02-27T04:10:49.092Z,42.78
2019-02-27T04:13:26.477Z,41.55
2019-02-27T04:15:54.385Z,46.70
2019-02-27T04:18:28.381Z,44.15
2019-02-27T04:20:58.202Z,46.35
2019-02-27T04:23:29.817Z,48.60
2019-02-27T04:26:05.436Z,46.07
2019-02-27T04:28:33.991Z,43.15
2019-02-27T04:31:05.205Z,42.03
2019-02-27T04:33:36.747Z,46.45
2019-02-27T04:36:12.322Z,45.03
2019-02-27T04:38:42.388Z,43.53
2019-02-27T04:41:17.840Z,44.83
2019-02-27T04:43:46.784Z,45.12
2019-02-27T04:46:21.301Z,40.33
2019-02-27T04:48:51.316Z,37.85
2019-02-27T04:51:22.876Z,85.33
2019-02-27T04:53:54.596Z,43.42
2019-02-27T04:56:25.941Z,47.38
2019-02-27T04:58:57.314Z,43.57
2019-02-27T05:01:28.601Z,43.13
2019-02-27T05:04:01.417Z,46.75
2019-02-27T05:06:32.790Z,48.20
2019-02-27T05:09:04.517Z,47.85
2019-02-27T05:11:37.571Z,44.77
2019-02-27T05:14:08.922Z,45.00
2019-02-27T05:16:40.185Z,47.13
2019-02-27T05:19:11.437Z,46.05
2019-02-27T05:21:42.602Z,46.95
2019-02-27T05:24:15.727Z,44.40
2019-02-27T05:26:46.977Z,45.08
2019-02-27T05:29:19.408Z,45.12
2019-02-27T05:31:53.295Z,39.85
2019-02-27T05:34:25.038Z,46.23
2019-02-27T05:36:56.220Z,40.12
2019-02-27T05:39:27.477Z,45.00
2019-02-27T05:42:00.873Z,41.20
2019-02-27T05:44:32.271Z,46.02
2019-02-27T05:47:03.465Z,45.40
2019-02-27T05:49:53.962Z,44.85
2019-02-27T05:52:25.699Z,42.95
2019-02-27T05:54:57.264Z,43.08
2019-02-27T05:57:28.590Z,43.30
2019-02-27T06:00:02.548Z,43.23
2019-02-27T06:02:33.523Z,40.30
2019-02-27T06:05:05.160Z,38.78
2019-02-27T06:07:36.476Z,45.92
2019-02-27T06:10:11.467Z,44.20
2019-02-27T06:12:43.815Z,37.28
2019-02-27T06:15:16.650Z,49.40
2019-02-27T06:17:49.091Z,45.83
2019-02-27T06:20:21.023Z,41.60
2019-02-27T06:22:52.682Z,41.85
2019-02-27T06:25:24.101Z,44.75
2019-02-27T06:27:55.512Z,38.20
2019-02-27T06:30:30.330Z,39.42
2019-02-27T06:33:00.259Z,36.10
2019-02-27T06:35:34.230Z,41.08
2019-02-27T06:38:04.775Z,40.75
2019-02-27T06:40:42.101Z,42.38
2019-02-27T06:43:10.814Z,40.48
2019-02-27T06:45:45.576Z,39.60
2019-02-27T06:48:17.765Z,41.05
2019-02-27T06:50:49.164Z,42.85
2019-02-27T06:53:20.363Z,40.05
2019-02-27T06:55:53.410Z,39.42
2019-02-27T06:58:24.904Z,39.23
2019-02-27T07:00:56.287Z,37.58
2019-02-27T07:03:29.433Z,41.45
2019-02-27T07:08:09.946Z,39.75
2019-02-27T07:10:41.935Z,40.83
2019-02-27T07:13:13.250Z,39.33
2019-02-27T07:15:48.176Z,39.00
2019-02-27T07:18:21.099Z,36.08
2019-02-27T07:20:52.629Z,37.13
2019-02-27T07:23:24.184Z,40.88
2019-02-27T07:25:55.678Z,34.13
2019-02-27T07:28:27.220Z,37.85
2019-02-27T07:30:59.719Z,34.53
2019-02-27T07:33:31.178Z,35.30
2019-02-27T07:36:04.292Z,38.25
2019-02-27T07:38:35.739Z,35.28
2019-02-27T07:41:07.145Z,34.55
2019-02-27T07:43:38.539Z,35.15
2019-02-27T07:46:12.512Z,39.03
2019-02-27T07:48:45.196Z,37.80
2019-02-27T07:51:17.438Z,37.28
2019-02-27T07:53:51.426Z,39.70
2019-02-27T07:56:23.237Z,36.83
2019-02-27T07:58:54.729Z,40.95
2019-02-27T08:01:26.289Z,32.15
2019-02-27T08:03:58.069Z,34.13
2019-02-27T08:06:29.472Z,33.18
2019-02-27T08:09:01.549Z,27.00
2019-02-27T08:11:34.714Z,36.40
2019-02-27T08:14:08.331Z,32.95
2019-02-27T08:16:40.942Z,36.25
2019-02-27T08:19:12.370Z,35.08
2019-02-27T08:21:45.641Z,32.85
2019-02-27T08:24:33.799Z,34.03
2019-02-27T08:27:13.759Z,28.80
2019-02-27T08:30:24.852Z,33.73
2019-02-27T08:32:58.250Z,35.33
2019-02-27T08:35:33.109Z,34.38
2019-02-27T08:38:08.790Z,34.55
2019-02-27T08:40:40.414Z,35.20
2019-02-27T08:43:13.014Z,32.73
2019-02-27T08:46:26.193Z,31.07
2019-02-27T08:48:57.720Z,34.15
2019-02-27T08:54:21.736Z,30.50
2019-02-27T08:56:53.938Z,33.23
2019-02-27T08:59:27.468Z,35.80
2019-02-27T09:01:59.194Z,35.50
2019-02-27T09:04:30.502Z,36.85
2019-02-27T09:07:02.734Z,35.98
2019-02-27T09:09:36.344Z,34.98
2019-02-27T09:12:13.410Z,34.73
2019-02-27T09:14:44.584Z,35.23
2019-02-27T09:17:16.798Z,31.33
2019-02-27T09:19:48.391Z,34.48
2019-02-27T09:22:19.672Z,32.78
2019-02-27T09:24:51.071Z,34.50
2019-02-27T09:27:24.148Z,33.28
2019-02-27T09:29:55.437Z,30.00
2019-02-27T09:32:28.338Z,29.42
2019-02-27T09:35:12.052Z,25.50
2019-02-27T09:37:44.876Z,29.72
2019-02-27T09:40:20.708Z,30.97
2019-02-27T09:42:53.903Z,27.30
2019-02-27T09:45:34.603Z,21.87
2019-02-27T09:48:09.406Z,25.77
2019-02-27T09:50:47.724Z,28.27
2019-02-27T09:53:18.859Z,26.10
2019-02-27T09:56:11.591Z,27.20
2019-02-27T09:58:51.345Z,26.97
2019-02-27T10:01:29.266Z,28.67
2019-02-27T10:04:09.686Z,27.27
2019-02-27T10:06:45.560Z,29.95
2019-02-27T10:09:19.470Z,27.80
2019-02-27T10:11:53.184Z,25.40
2019-02-27T10:14:24.812Z,25.77
2019-02-27T10:16:56.813Z,24.23
2019-02-27T10:19:28.824Z,12.23
2019-02-27T10:22:01.367Z,22.30
2019-02-27T10:24:38.061Z,23.57
2019-02-27T10:30:11.465Z,20.50
2019-02-27T10:32:42.219Z,24.02
2019-02-27T10:35:15.385Z,22.05
2019-02-27T10:37:50.475Z,26.17
2019-02-27T10:40:20.934Z,14.75
2019-02-27T10:42:52.877Z,26.23
2019-02-27T10:45:24.575Z,21.85
2019-02-27T10:47:57.469Z,22.62
2019-02-27T10:50:29.746Z,23.38
2019-02-27T10:53:01.885Z,22.50
2019-02-27T10:55:37.203Z,20.25
2019-02-27T11:01:28.093Z,21.75
2019-02-27T11:04:00.567Z,22.98
2019-02-27T11:06:37.766Z,22.65
2019-02-27T11:09:23.824Z,19.65
2019-02-27T11:11:55.583Z,24.02
2019-02-27T11:14:31.630Z,22.67
2019-02-27T11:17:02.570Z,21.27
2019-02-27T11:19:34.904Z,17.45
2019-02-27T11:22:07.257Z,24.35
2019-02-27T11:24:38.768Z,15.53
2019-02-27T11:27:10.241Z,21.33
2019-02-27T11:29:43.169Z,33.88
2019-02-27T11:32:14.682Z,24.32
2019-02-27T11:34:48.468Z,24.43
2019-02-27T11:37:19.948Z,21.90
2019-02-27T11:39:51.418Z,23.20
2019-02-27T11:42:24.180Z,26.85
2019-02-27T11:44:56.974Z,23.25
2019-02-27T11:47:28.507Z,24.40
2019-02-27T11:49:59.957Z,29.40
2019-02-27T11:52:31.833Z,28.83
2019-02-27T11:55:03.298Z,28.32
2019-02-27T11:57:34.764Z,25.17
2019-02-27T12:00:06.989Z,24.70
2019-02-27T12:02:41.375Z,25.45
2019-02-27T12:05:14.967Z,29.95
2019-02-27T12:07:50.799Z,27.10
2019-02-27T12:10:24.636Z,31.17
2019-02-27T12:13:00.739Z,30.82
2019-02-27T12:15:33.252Z,31.40
2019-02-27T12:18:04.703Z,30.17
2019-02-27T12:20:36.142Z,32.95
2019-02-27T12:23:10.130Z,30.10
2019-02-27T12:25:45.011Z,28.17
2019-02-27T12:28:19.948Z,30.50
2019-02-27T12:30:51.949Z,28.85
2019-02-27T12:33:23.461Z,22.95
2019-02-27T12:35:55.461Z,27.15
2019-02-27T12:38:27.657Z,18.57
2019-02-27T12:40:59.119Z,34.08
2019-02-27T12:43:32.653Z,28.57
2019-02-27T12:46:04.425Z,33.25
2019-02-27T12:48:36.287Z,18.77
2019-02-27T12:51:08.074Z,28.77
2019-02-27T12:53:39.469Z,28.98
2019-02-27T12:56:33.257Z,31.80
2019-02-27T12:59:05.149Z,27.27
2019-02-27T13:01:36.888Z,28.55
2019-02-27T13:04:08.542Z,28.05
2019-02-27T13:06:40.108Z,28.20
2019-02-27T13:09:11.735Z,29.50
2019-02-27T13:11:44.982Z,31.33
2019-02-27T13:14:16.971Z,26.57
2019-02-27T13:16:49.524Z,28.23
2019-02-27T13:19:21.982Z,30.62
2019-02-27T13:21:55.025Z,25.77
2019-02-27T13:24:26.822Z,27.10
2019-02-27T13:26:58.184Z,25.77
2019-02-27T13:29:29.624Z,27.20
2019-02-27T13:32:01.682Z,29.82
2019-02-27T13:34:33.025Z,28.92
2019-02-27T13:37:06.943Z,25.75
2019-02-27T13:39:38.218Z,23.35
2019-02-27T13:42:09.597Z,27.35
2019-02-27T13:44:40.847Z,24.00
2019-02-27T13:47:12.496Z,24.80
2019-02-27T13:49:45.027Z,20.50
2019-02-27T13:52:17.436Z,23.10
2019-02-27T13:54:50.191Z,30.45
2019-02-27T13:57:25.052Z,29.98
2019-02-27T13:59:56.826Z,23.90
2019-02-27T14:02:28.537Z,27.67
2019-02-27T14:05:06.516Z,30.05
2019-02-27T14:07:37.891Z,25.95
2019-02-27T14:10:09.930Z,27.85
2019-02-27T14:12:41.666Z,30.48
2019-02-27T14:15:15.018Z,27.30
2019-02-27T14:17:46.519Z,27.15
2019-02-27T14:20:18.849Z,20.60
2019-02-27T14:22:50.600Z,23.35
2019-02-27T14:25:28.508Z,24.72
2019-02-27T14:27:58.686Z,24.92
2019-02-27T14:30:35.718Z,19.70
2019-02-27T14:33:06.700Z,23.35
2019-02-27T14:35:38.123Z,21.87
2019-02-27T14:38:09.362Z,16.60
2019-02-27T14:40:41.542Z,17.62
2019-02-27T14:43:12.883Z,18.70
2019-02-27T14:45:44.914Z,20.70
2019-02-27T14:48:18.172Z,20.30
2019-02-27T14:50:49.718Z,22.02
2019-02-27T14:53:21.187Z,17.90
2019-02-27T14:55:52.628Z,15.85
2019-02-27T14:58:26.997Z,20.02
2019-02-27T15:00:58.630Z,19.50
2019-02-27T15:03:30.193Z,19.67
2019-02-27T15:06:01.507Z,24.47
2019-02-27T15:08:33.404Z,23.67
2019-02-27T15:11:05.001Z,21.90
2019-02-27T15:13:36.573Z,24.20
2019-02-27T15:16:08.030Z,23.32
2019-02-27T15:18:39.445Z,24.20
2019-02-27T15:21:13.247Z,30.20
2019-02-27T15:23:44.053Z,24.77
2019-02-27T15:26:16.436Z,27.98
2019-02-27T15:28:48.810Z,29.07
2019-02-27T15:31:21.432Z,29.60
2019-02-27T15:33:54.005Z,29.50
2019-02-27T15:36:31.036Z,29.37
2019-02-27T15:39:02.910Z,29.07
2019-02-27T15:41:36.048Z,34.08
2019-02-27T15:44:07.685Z,33.98
2019-02-27T15:46:39.331Z,32.83
2019-02-27T15:49:12.825Z,30.15
2019-02-27T15:51:44.221Z,32.17
2019-02-27T15:54:15.598Z,32.40
2019-02-27T15:56:47.189Z,32.23
2019-02-27T15:59:18.554Z,33.45
2019-02-27T16:01:50.742Z,36.00
2019-02-27T16:04:22.234Z,32.25
2019-02-27T16:06:53.617Z,35.85
2019-02-27T16:09:25.217Z,35.43
2019-02-27T16:11:56.585Z,35.98
2019-02-27T16:14:30.019Z,33.15
2019-02-27T16:17:01.192Z,33.53
2019-02-27T16:19:32.650Z,39.92
2019-02-27T16:22:04.006Z,33.80
2019-02-27T16:24:35.963Z,38.15
2019-02-27T16:27:08.909Z,35.85
2019-02-27T16:29:40.820Z,33.28
2019-02-27T16:32:13.382Z,34.88
2019-02-27T16:34:47.496Z,31.68
2019-02-27T16:37:22.810Z,30.75
2019-02-27T16:39:55.407Z,32.35
2019-02-27T16:42:26.658Z,32.75
2019-02-27T16:44:58.146Z,31.30
2019-02-27T16:47:30.144Z,33.28
2019-02-27T16:50:03.138Z,34.08
2019-02-27T16:52:39.183Z,32.78
2019-02-27T16:55:13.347Z,33.00
2019-02-27T16:57:44.956Z,32.00
2019-02-27T17:00:21.895Z,35.38
2019-02-27T17:02:54.438Z,32.05
2019-02-27T17:05:26.408Z,33.55
2019-02-27T17:08:02.083Z,32.88
2019-02-27T17:10:32.575Z,31.70
2019-02-27T17:13:05.055Z,34.03
2019-02-27T17:15:36.914Z,33.30
2019-02-27T17:18:08.314Z,32.28
2019-02-27T17:20:46.066Z,31.30
2019-02-27T17:23:14.567Z,42.48
2019-02-27T17:25:45.941Z,32.33
2019-02-27T17:28:17.322Z,30.20
2019-02-27T17:30:49.266Z,31.80
2019-02-27T17:33:23.013Z,30.25
2019-02-27T17:35:58.537Z,36.20
2019-02-27T17:38:28.866Z,33.42
2019-02-27T17:41:00.610Z,33.58
2019-02-27T17:43:33.035Z,34.92
2019-02-27T17:46:08.025Z,34.10
2019-02-27T17:48:39.449Z,34.53
2019-02-27T17:51:10.747Z,36.00
2019-02-27T17:53:42.247Z,33.65
2019-02-27T17:56:16.270Z,36.42
2019-02-27T17:58:47.942Z,34.43
2019-02-27T18:01:25.141Z,35.10
2019-02-27T18:03:55.603Z,35.73
2019-02-27T18:06:27.229Z,35.40
2019-02-27T18:08:58.952Z,34.67
2019-02-27T18:11:30.448Z,38.35
2019-02-27T18:14:01.946Z,41.92
2019-02-27T18:16:36.085Z,35.60
2019-02-27T18:19:07.613Z,37.65
2019-02-27T18:21:39.107Z,36.25
2019-02-27T18:24:11.653Z,38.33
2019-02-27T18:26:50.068Z,46.15
2019-02-27T18:29:19.095Z,38.92
2019-02-27T18:31:53.595Z,39.30
2019-02-27T18:34:25.565Z,40.85
2019-02-27T18:36:57.020Z,40.85
2019-02-27T18:39:28.555Z,39.67
2019-02-27T18:42:03.415Z,41.88
2019-02-27T18:44:38.279Z,43.65
2019-02-27T18:47:10.051Z,38.90
2019-02-27T18:49:42.447Z,39.78
2019-02-27T18:52:21.168Z,42.48
2019-02-27T18:54:49.192Z,41.90
2019-02-27T18:57:21.968Z,40.90
2019-02-27T18:59:53.525Z,38.02
2019-02-27T19:02:24.762Z,40.17
2019-02-27T19:04:56.254Z,37.23
2019-02-27T19:07:27.447Z,38.42
2019-02-27T19:09:59.203Z,40.65
2019-02-27T19:12:31.334Z,40.05
2019-02-27T19:15:03.368Z,37.85
2019-02-27T19:17:36.928Z,41.85
2019-02-27T19:20:18.112Z,42.65
2019-02-27T19:22:50.624Z,41.92
2019-02-27T19:25:22.099Z,39.53
2019-02-27T19:27:54.459Z,39.30
2019-02-27T19:30:26.629Z,42.93
2019-02-27T19:33:01.730Z,39.80
2019-02-27T19:35:31.340Z,38.17
2019-02-27T19:38:05.867Z,42.20
2019-02-27T19:40:37.435Z,41.55
2019-02-27T19:43:09.265Z,36.53
2019-02-27T19:45:42.242Z,37.95
2019-02-27T19:48:14.086Z,42.25
2019-02-27T19:50:46.417Z,38.28
2019-02-27T19:53:19.240Z,41.63
2019-02-27T19:55:50.953Z,36.13
2019-02-27T19:58:28.270Z,35.03
2019-02-27T20:01:00.689Z,39.08
2019-02-27T20:03:35.468Z,33.80
2019-02-27T20:06:08.562Z,35.00
2019-02-27T20:08:44.360Z,36.65
2019-02-27T20:11:17.698Z,36.58
2019-02-27T20:13:54.746Z,36.83
2019-02-27T20:16:36.199Z,34.60
2019-02-27T20:19:22.351Z,37.03
2019-02-27T20:22:15.476Z,38.67
2019-02-27T20:24:49.265Z,36.63
2019-02-27T20:27:25.875Z,35.13
2019-02-27T20:30:15.432Z,36.50
2019-02-27T20:32:53.869Z,36.17
2019-02-27T20:35:42.853Z,37.95
2019-02-27T20:38:15.990Z,38.50
2019-02-27T20:40:48.514Z,35.75
2019-02-27T20:43:21.386Z,35.88
2019-02-27T20:45:54.594Z,38.85
2019-02-27T20:48:39.538Z,39.73
2019-02-27T20:54:04.593Z,36.85
2019-02-27T20:56:36.845Z,36.10
2019-02-27T21:02:02.172Z,35.40
2019-02-27T21:04:39.251Z,38.55
2019-02-27T21:07:31.206Z,32.78
2019-02-27T21:10:05.164Z,36.63
2019-02-27T21:12:40.752Z,34.63
2019-02-27T21:15:22.509Z,38.70
2019-02-27T21:18:06.769Z,41.88
2019-02-27T21:20:42.171Z,40.83
2019-02-27T21:23:24.803Z,37.42
2019-02-27T21:26:12.101Z,42.48
2019-02-27T21:31:58.234Z,41.58
2019-02-27T21:34:42.402Z,37.85
2019-02-27T21:37:16.262Z,36.88
2019-02-27T21:39:57.126Z,46.10
2019-02-27T21:42:40.993Z,42.45
2019-02-27T21:45:31.239Z,31.05
2019-02-27T21:48:26.680Z,44.70
2019-02-27T21:51:47.669Z,48.35
2019-02-27T21:54:51.652Z,44.35
2019-02-27T22:03:18.157Z,43.48
2019-02-27T22:05:52.972Z,43.50
2019-02-27T22:08:25.341Z,47.25
2019-02-27T22:11:05.701Z,45.05
2019-02-27T22:13:46.403Z,44.95
2019-02-27T22:16:21.167Z,47.20
2019-02-27T22:18:54.302Z,43.65
2019-02-27T22:21:27.267Z,32.00
2019-02-27T22:24:00.173Z,40.90
2019-02-27T22:26:38.437Z,47.45
2019-02-27T22:29:30.212Z,53.17
2019-02-27T22:32:07.835Z,49.73
2019-02-27T22:34:41.240Z,50.80
2019-02-27T22:37:18.453Z,46.75
2019-02-27T22:39:49.622Z,33.48
2019-02-27T22:42:24.696Z,50.48
2019-02-27T22:45:00.643Z,50.90
2019-02-27T22:47:37.183Z,52.20
2019-02-27T22:50:10.521Z,38.38
2019-02-27T22:52:42.881Z,38.58
2019-02-27T22:55:15.560Z,52.17
2019-02-27T22:57:50.045Z,27.80
2019-02-27T23:01:02.579Z,39.00
2019-02-27T23:03:46.801Z,52.48
2019-02-27T23:06:19.519Z,29.18
2019-02-27T23:08:54.460Z,55.50
2019-02-27T23:11:29.267Z,38.53
2019-02-27T23:14:03.175Z,50.23
2019-02-27T23:16:37.007Z,45.10
2019-02-27T23:19:51.977Z,59.40
2019-02-27T23:22:50.535Z,39.45
2019-02-27T23:25:23.747Z,37.78
2019-02-27T23:28:03.004Z,50.67
2019-02-27T23:33:35.842Z,41.88
2019-02-27T23:36:05.808Z,43.58
2019-02-27T23:38:44.597Z,66.22
2019-02-27T23:41:22.923Z,45.78
2019-02-27T23:43:52.416Z,43.05
2019-02-27T23:59:17.548Z,67.42
